createdAt,value
2023-05-06T00:01:45.688Z,26.44
2023-05-06T00:04:12.372Z,26.43
2023-05-06T00:06:38.847Z,26.43
2023-05-06T00:09:05.446Z,26.42
2023-05-06T00:11:31.997Z,26.44
2023-05-06T00:13:58.410Z,26.44
2023-05-06T00:16:24.816Z,26.41
2023-05-06T00:18:51.261Z,26.40
2023-05-06T00:21:17.635Z,26.39
2023-05-06T00:23:44.136Z,26.38
2023-05-06T00:26:10.678Z,26.36
2023-05-06T00:28:37.113Z,26.35
2023-05-06T00:31:03.621Z,26.34
2023-05-06T00:33:30.457Z,26.34
2023-05-06T00:35:56.905Z,26.34
2023-05-06T00:38:23.336Z,26.35
2023-05-06T00:40:49.812Z,26.33
2023-05-06T00:43:16.202Z,26.34
2023-05-06T00:45:42.843Z,26.32
2023-05-06T00:48:09.650Z,26.31
2023-05-06T00:50:36.106Z,26.32
2023-05-06T00:53:03.360Z,26.32
2023-05-06T00:55:30.279Z,26.31
2023-05-06T00:57:57.094Z,26.32
2023-05-06T01:00:23.604Z,26.33
2023-05-06T01:02:51.140Z,26.33
2023-05-06T01:05:17.954Z,26.30
2023-05-06T01:07:50.660Z,26.30
2023-05-06T01:10:20.561Z,26.29
2023-05-06T01:12:47.224Z,26.28
2023-05-06T01:15:26.150Z,26.27
2023-05-06T01:17:53.127Z,26.28
2023-05-06T01:20:21.249Z,26.28
2023-05-06T01:22:47.692Z,26.29
2023-05-06T01:25:18.109Z,26.29
2023-05-06T01:27:44.583Z,26.26
2023-05-06T01:30:11.267Z,26.26
2023-05-06T01:32:55.695Z,26.25
2023-05-06T01:35:24.973Z,26.23
2023-05-06T01:37:55.649Z,26.23
2023-05-06T01:40:22.226Z,26.24
2023-05-06T01:42:51.514Z,26.24
2023-05-06T01:45:18.145Z,26.23
2023-05-06T01:47:44.962Z,26.22
2023-05-06T01:50:11.511Z,26.24
2023-05-06T01:52:37.898Z,26.22
2023-05-06T01:55:04.517Z,26.22
2023-05-06T01:57:31.021Z,26.21
2023-05-06T01:59:57.541Z,26.21
2023-05-06T02:02:24.314Z,26.22
2023-05-06T02:04:52.388Z,26.20
2023-05-06T02:07:19.380Z,26.22
2023-05-06T02:09:45.800Z,26.22
2023-05-06T02:12:12.442Z,26.22
2023-05-06T02:14:38.823Z,26.20
2023-05-06T02:17:05.999Z,26.20
2023-05-06T02:19:32.497Z,26.21
2023-05-06T02:21:59.068Z,26.20
2023-05-06T02:24:26.717Z,26.19
2023-05-06T02:26:53.161Z,26.19
2023-05-06T02:29:19.607Z,26.17
2023-05-06T02:31:46.155Z,26.16
2023-05-06T02:34:12.607Z,26.16
2023-05-06T02:36:39.077Z,26.13
2023-05-06T02:39:05.561Z,26.17
2023-05-06T02:41:31.971Z,26.17
2023-05-06T02:43:58.347Z,26.17
2023-05-06T02:46:24.913Z,26.16
2023-05-06T02:48:51.818Z,26.17
2023-05-06T02:51:18.232Z,26.14
2023-05-06T02:53:44.773Z,26.14
2023-05-06T02:56:11.173Z,26.15
2023-05-06T02:58:37.605Z,26.15
2023-05-06T03:01:04.108Z,26.13
2023-05-06T03:03:30.559Z,26.11
2023-05-06T03:05:57.018Z,26.11
2023-05-06T03:08:23.512Z,26.11
2023-05-06T03:10:50.826Z,26.12
2023-05-06T03:13:19.362Z,26.12
2023-05-06T03:15:50.839Z,26.10
2023-05-06T03:18:17.631Z,26.09
2023-05-06T03:20:44.042Z,26.09
2023-05-06T03:23:11.189Z,26.09
2023-05-06T03:25:37.690Z,26.09
2023-05-06T03:28:05.193Z,26.10
2023-05-06T03:30:32.544Z,26.10
2023-05-06T03:33:02.314Z,26.10
2023-05-06T03:35:32.106Z,26.10
2023-05-06T03:38:00.344Z,26.11
2023-05-06T03:40:33.759Z,26.08
2023-05-06T03:43:00.425Z,26.07
2023-05-06T03:45:27.218Z,26.08
2023-05-06T03:47:57.188Z,26.07
2023-05-06T03:50:25.122Z,26.06
2023-05-06T03:52:53.273Z,26.06
2023-05-06T03:55:21.500Z,26.06
2023-05-06T03:57:48.098Z,26.05
2023-05-06T04:00:14.807Z,26.06
2023-05-06T04:02:45.619Z,26.05
2023-05-06T04:05:19.764Z,26.05
2023-05-06T04:07:46.244Z,26.06
2023-05-06T04:10:12.949Z,26.04
2023-05-06T04:12:41.842Z,26.06
2023-05-06T04:15:10.459Z,26.07
2023-05-06T04:17:37.465Z,26.06
2023-05-06T04:20:06.842Z,26.05
2023-05-06T04:22:33.376Z,26.02
2023-05-06T04:25:02.895Z,26.01
2023-05-06T04:27:32.022Z,26.00
2023-05-06T04:29:59.866Z,26.07
2023-05-06T04:32:28.848Z,26.02
2023-05-06T04:34:56.775Z,26.02
2023-05-06T04:37:24.627Z,26.04
2023-05-06T04:39:57.187Z,26.02
2023-05-06T04:42:23.705Z,26.04
2023-05-06T04:45:00.727Z,26.02
2023-05-06T04:47:30.842Z,26.00
2023-05-06T04:49:57.476Z,25.99
2023-05-06T04:52:24.578Z,25.99
2023-05-06T04:54:51.212Z,25.98
2023-05-06T04:57:21.673Z,25.96
2023-05-06T04:59:48.579Z,25.98
2023-05-06T05:02:15.465Z,25.96
2023-05-06T05:04:43.218Z,25.97
2023-05-06T05:07:09.695Z,25.96
2023-05-06T05:09:36.261Z,25.97
2023-05-06T05:12:03.247Z,25.96
2023-05-06T05:14:33.030Z,25.98
2023-05-06T05:17:00.083Z,26.02
2023-05-06T05:19:26.683Z,25.96
2023-05-06T05:21:54.953Z,25.90
2023-05-06T05:24:23.081Z,25.91
2023-05-06T05:26:49.547Z,25.90
2023-05-06T05:29:16.998Z,25.91
2023-05-06T05:31:44.313Z,25.95
2023-05-06T05:34:12.024Z,25.90
2023-05-06T05:36:38.532Z,25.85
2023-05-06T05:39:07.470Z,26.07
2023-05-06T05:41:37.755Z,25.98
2023-05-06T05:44:04.598Z,25.92
2023-05-06T05:46:31.338Z,25.91
2023-05-06T05:48:57.963Z,25.91
2023-05-06T05:51:25.359Z,25.92
2023-05-06T05:53:53.368Z,25.97
2023-05-06T05:56:21.705Z,25.94
2023-05-06T05:58:49.005Z,25.95
2023-05-06T06:01:15.819Z,26.10
2023-05-06T06:03:42.488Z,25.99
2023-05-06T06:06:09.462Z,25.88
2023-05-06T06:08:36.622Z,25.89
2023-05-06T06:11:04.501Z,25.79
2023-05-06T06:13:36.248Z,25.72
2023-05-06T06:16:03.213Z,25.77
2023-05-06T06:18:29.913Z,25.68
2023-05-06T06:20:56.910Z,25.57
2023-05-06T06:23:24.406Z,25.58
2023-05-06T06:25:50.877Z,25.50
2023-05-06T06:28:17.392Z,25.38
2023-05-06T06:30:45.149Z,25.44
2023-05-06T06:33:11.851Z,25.48
2023-05-06T06:35:39.639Z,25.49
2023-05-06T06:38:06.108Z,25.58
2023-05-06T06:40:32.586Z,25.64
2023-05-06T06:42:59.145Z,25.75
2023-05-06T06:45:51.604Z,25.74
2023-05-06T06:48:18.541Z,25.82
2023-05-06T06:50:45.132Z,25.82
2023-05-06T06:53:11.604Z,25.84
2023-05-06T06:55:38.029Z,25.88
2023-05-06T06:58:04.500Z,25.88
2023-05-06T07:00:30.931Z,25.96
2023-05-06T07:02:57.316Z,25.95
2023-05-06T07:05:23.817Z,25.96
2023-05-06T07:07:50.330Z,25.93
2023-05-06T07:10:16.851Z,25.96
2023-05-06T07:12:43.351Z,25.95
2023-05-06T07:15:10.250Z,26.00
2023-05-06T07:17:36.992Z,25.99
2023-05-06T07:20:03.672Z,26.03
2023-05-06T07:22:30.200Z,25.97
2023-05-06T07:24:56.722Z,25.94
2023-05-06T07:27:24.318Z,26.03
2023-05-06T07:29:50.854Z,26.00
2023-05-06T07:32:17.462Z,25.96
2023-05-06T07:34:43.930Z,25.95
2023-05-06T07:37:10.501Z,25.96
2023-05-06T07:39:37.026Z,26.00
2023-05-06T07:42:03.675Z,25.96
2023-05-06T07:44:30.193Z,25.95
2023-05-06T07:46:56.887Z,25.87
2023-05-06T07:49:24.068Z,25.86
2023-05-06T07:51:50.537Z,25.87
2023-05-06T07:54:16.969Z,25.92
2023-05-06T07:56:44.043Z,25.92
2023-05-06T07:59:10.535Z,25.93
2023-05-06T08:01:37.049Z,25.86
2023-05-06T08:04:03.736Z,25.85
2023-05-06T08:06:30.466Z,25.95
2023-05-06T08:08:56.938Z,25.88
2023-05-06T08:11:23.699Z,25.93
2023-05-06T08:13:50.334Z,26.01
2023-05-06T08:16:16.873Z,25.93
2023-05-06T08:18:43.431Z,25.84
2023-05-06T08:21:09.928Z,25.82
2023-05-06T08:23:36.462Z,25.89
2023-05-06T08:26:02.901Z,25.88
2023-05-06T08:28:29.437Z,25.88
2023-05-06T08:30:56.074Z,25.90
2023-05-06T08:33:22.538Z,25.98
2023-05-06T08:35:51.777Z,25.95
2023-05-06T08:38:18.501Z,25.95
2023-05-06T08:40:45.054Z,26.06
2023-05-06T08:43:14.699Z,25.96
2023-05-06T08:45:41.849Z,25.96
2023-05-06T08:48:08.763Z,25.96
2023-05-06T08:50:35.574Z,25.93
2023-05-06T08:53:02.072Z,25.89
2023-05-06T08:55:28.718Z,25.92
2023-05-06T08:57:55.207Z,25.86
2023-05-06T09:00:21.885Z,25.90
2023-05-06T09:02:48.537Z,25.91
2023-05-06T09:05:16.348Z,25.97
2023-05-06T09:07:42.846Z,25.94
2023-05-06T09:10:12.764Z,25.96
2023-05-06T09:12:39.337Z,25.97
2023-05-06T09:15:06.247Z,26.02
2023-05-06T09:17:33.007Z,26.13
2023-05-06T09:19:59.649Z,26.04
2023-05-06T09:22:26.608Z,26.05
2023-05-06T09:24:57.056Z,26.12
2023-05-06T09:27:23.649Z,26.15
2023-05-06T09:30:11.830Z,26.22
2023-05-06T09:32:40.244Z,26.25
2023-05-06T09:35:07.904Z,26.21
2023-05-06T09:37:34.634Z,26.11
2023-05-06T09:40:01.265Z,26.00
2023-05-06T09:42:28.671Z,26.00
2023-05-06T09:44:58.151Z,26.05
2023-05-06T09:49:23.454Z,26.29
2023-05-06T09:51:51.690Z,26.19
2023-05-06T09:54:18.388Z,26.18
2023-05-06T09:56:45.625Z,26.17
2023-05-06T09:59:12.269Z,26.19
2023-05-06T10:01:38.905Z,26.14
2023-05-06T10:04:06.780Z,26.08
2023-05-06T10:06:35.631Z,26.25
2023-05-06T10:09:02.466Z,26.28
2023-05-06T10:11:31.120Z,26.26
2023-05-06T10:13:57.957Z,26.26
2023-05-06T10:16:24.657Z,26.35
2023-05-06T10:18:51.953Z,26.39
2023-05-06T10:21:22.098Z,26.45
2023-05-06T10:23:52.292Z,26.43
2023-05-06T10:26:19.772Z,26.44
2023-05-06T10:28:46.768Z,26.45
2023-05-06T10:31:16.826Z,26.51
2023-05-06T10:33:46.079Z,26.53
2023-05-06T10:36:20.313Z,26.57
2023-05-06T10:38:50.423Z,26.41
2023-05-06T10:41:17.043Z,26.55
2023-05-06T10:43:43.801Z,26.66
2023-05-06T10:46:15.095Z,26.58
2023-05-06T10:49:08.512Z,26.59
2023-05-06T10:51:38.970Z,26.55
2023-05-06T10:54:08.285Z,26.57
2023-05-06T10:56:38.756Z,26.50
2023-05-06T10:59:10.101Z,26.22
2023-05-06T11:01:40.256Z,26.25
2023-05-06T11:04:14.119Z,26.31
2023-05-06T11:06:42.336Z,26.39
2023-05-06T11:09:26.776Z,26.51
2023-05-06T11:12:08.671Z,26.60
2023-05-06T11:14:38.218Z,26.59
2023-05-06T11:17:09.289Z,26.68
2023-05-06T11:19:37.382Z,26.73
2023-05-06T11:22:05.000Z,26.78
2023-05-06T11:24:38.284Z,26.75
2023-05-06T11:27:05.607Z,26.80
2023-05-06T11:29:32.274Z,26.90
2023-05-06T11:31:59.086Z,26.88
2023-05-06T11:34:30.162Z,26.83
2023-05-06T11:36:58.878Z,26.89
2023-05-06T11:39:30.531Z,26.82
2023-05-06T11:42:02.845Z,26.93
2023-05-06T11:44:31.105Z,26.83
2023-05-06T11:46:59.004Z,26.99
2023-05-06T11:49:26.908Z,26.95
2023-05-06T11:51:54.793Z,27.03
2023-05-06T11:54:22.826Z,27.07
2023-05-06T11:56:51.379Z,27.01
2023-05-06T11:59:18.893Z,27.08
2023-05-06T12:01:46.077Z,27.13
2023-05-06T12:04:13.175Z,27.15
2023-05-06T12:06:40.144Z,27.16
2023-05-06T12:09:08.730Z,27.21
2023-05-06T12:11:35.539Z,27.20
2023-05-06T12:14:03.328Z,27.25
2023-05-06T12:16:30.009Z,27.25
2023-05-06T12:18:56.695Z,27.35
2023-05-06T12:21:24.056Z,27.41
2023-05-06T12:23:53.924Z,27.47
2023-05-06T12:26:22.872Z,27.48
2023-05-06T12:29:09.631Z,27.49
2023-05-06T12:31:36.339Z,27.53
2023-05-06T12:34:03.831Z,27.58
2023-05-06T12:36:30.678Z,27.50
2023-05-06T12:39:01.065Z,27.57
2023-05-06T12:41:44.190Z,27.62
2023-05-06T12:44:52.172Z,27.72
2023-05-06T12:47:20.773Z,27.64
2023-05-06T12:49:51.490Z,27.70
2023-05-06T12:52:19.460Z,27.72
2023-05-06T12:54:46.234Z,27.74
2023-05-06T12:57:13.118Z,27.80
2023-05-06T12:59:39.779Z,27.84
2023-05-06T13:02:06.632Z,27.84
2023-05-06T13:04:33.243Z,27.84
2023-05-06T13:07:02.450Z,27.84
2023-05-06T13:09:29.165Z,27.51
2023-05-06T13:11:55.820Z,27.78
2023-05-06T13:14:22.958Z,27.84
2023-05-06T13:16:49.703Z,27.83
2023-05-06T13:19:31.625Z,27.84
2023-05-06T13:22:00.585Z,27.80
2023-05-06T13:24:27.547Z,27.72
2023-05-06T13:26:56.001Z,27.73
2023-05-06T13:29:23.462Z,27.71
2023-05-06T13:31:50.255Z,27.76
2023-05-06T13:34:16.989Z,27.71
2023-05-06T13:36:43.882Z,27.77
2023-05-06T13:39:10.590Z,27.76
2023-05-06T13:41:37.259Z,27.73
2023-05-06T13:44:04.074Z,27.81
2023-05-06T13:46:31.365Z,27.67
2023-05-06T13:48:58.128Z,27.84
2023-05-06T13:51:29.171Z,27.84
2023-05-06T13:53:55.914Z,27.81
2023-05-06T13:56:22.567Z,27.79
2023-05-06T13:58:49.235Z,27.91
2023-05-06T14:01:15.870Z,27.95
2023-05-06T14:03:42.605Z,28.00
2023-05-06T14:06:09.240Z,27.98
2023-05-06T14:08:35.899Z,28.01
2023-05-06T14:11:02.555Z,27.92
2023-05-06T14:13:30.782Z,27.87
2023-05-06T14:15:57.597Z,28.00
2023-05-06T14:18:26.572Z,27.97
2023-05-06T14:20:53.765Z,27.98
2023-05-06T14:23:20.621Z,28.00
2023-05-06T14:25:47.281Z,28.00
2023-05-06T14:28:15.612Z,27.97
2023-05-06T14:30:42.541Z,27.93
2023-05-06T14:33:09.548Z,27.95
2023-05-06T14:35:36.245Z,27.99
2023-05-06T14:38:03.194Z,27.94
2023-05-06T14:40:30.268Z,27.93
2023-05-06T14:42:56.932Z,27.90
2023-05-06T14:45:23.570Z,27.89
2023-05-06T14:47:51.515Z,27.92
2023-05-06T14:50:18.609Z,27.88
2023-05-06T14:52:45.434Z,27.91
2023-05-06T14:55:12.491Z,27.88
2023-05-06T14:57:39.339Z,27.86
2023-05-06T15:00:09.999Z,27.85
2023-05-06T15:02:38.069Z,27.85
2023-05-06T15:05:05.102Z,27.84
2023-05-06T15:07:31.794Z,27.68
2023-05-06T15:09:58.463Z,27.82
2023-05-06T15:12:25.277Z,27.85
2023-05-06T15:14:51.937Z,27.84
2023-05-06T15:17:18.562Z,27.80
2023-05-06T15:19:45.800Z,27.80
2023-05-06T15:22:12.445Z,27.85
2023-05-06T15:24:39.104Z,27.84
2023-05-06T15:27:06.058Z,27.84
2023-05-06T15:29:32.758Z,27.83
2023-05-06T15:31:59.354Z,27.77
2023-05-06T15:34:25.995Z,27.81
2023-05-06T15:36:53.142Z,27.81
2023-05-06T15:39:19.938Z,27.79
2023-05-06T15:41:46.740Z,27.81
2023-05-06T15:46:42.645Z,27.79
2023-05-06T15:49:33.663Z,27.78
2023-05-06T15:51:59.044Z,27.77
2023-05-06T15:54:27.274Z,27.76
2023-05-06T15:56:54.025Z,27.76
2023-05-06T15:59:20.609Z,27.73
2023-05-06T16:04:17.172Z,27.75
2023-05-06T16:06:43.948Z,27.73
2023-05-06T16:09:10.606Z,27.71
2023-05-06T16:11:37.235Z,27.72
2023-05-06T16:14:03.943Z,27.79
2023-05-06T16:16:30.713Z,27.81
2023-05-06T16:18:57.480Z,27.82
2023-05-06T16:21:24.140Z,27.78
2023-05-06T16:23:50.837Z,27.83
2023-05-06T16:26:17.764Z,27.83
2023-05-06T16:28:44.551Z,27.83
2023-05-06T16:31:11.238Z,27.84
2023-05-06T16:33:37.984Z,27.83
2023-05-06T16:36:04.851Z,27.83
2023-05-06T16:38:31.543Z,27.79
2023-05-06T16:40:58.253Z,27.82
2023-05-06T16:43:24.884Z,27.88
2023-05-06T16:45:51.489Z,27.92
2023-05-06T16:48:18.210Z,27.93
2023-05-06T16:50:45.071Z,27.95
2023-05-06T16:53:11.694Z,27.95
2023-05-06T16:55:38.303Z,27.93
2023-05-06T16:58:04.992Z,27.89
2023-05-06T17:00:32.037Z,27.93
2023-05-06T17:02:58.881Z,27.89
2023-05-06T17:05:25.814Z,27.89
2023-05-06T17:07:52.566Z,27.89
2023-05-06T17:10:19.324Z,27.82
2023-05-06T17:12:45.946Z,27.84
2023-05-06T17:15:12.652Z,27.82
2023-05-06T17:17:39.913Z,27.82
2023-05-06T17:20:07.404Z,27.78
2023-05-06T17:22:34.098Z,27.76
2023-05-06T17:25:00.791Z,27.74
2023-05-06T17:27:27.537Z,27.68
2023-05-06T17:29:54.287Z,27.71
2023-05-06T17:32:21.051Z,27.69
2023-05-06T17:34:47.711Z,27.70
2023-05-06T17:37:14.348Z,27.57
2023-05-06T17:39:40.980Z,27.55
2023-05-06T17:42:08.417Z,27.59
2023-05-06T17:44:35.838Z,27.64
2023-05-06T17:47:02.448Z,27.68
2023-05-06T17:49:29.138Z,27.72
2023-05-06T17:51:57.309Z,27.71
2023-05-06T17:54:25.347Z,27.71
2023-05-06T17:56:52.940Z,27.73
2023-05-06T17:59:19.784Z,27.70
2023-05-06T18:01:46.521Z,27.65
2023-05-06T18:04:13.590Z,27.66
2023-05-06T18:06:41.563Z,27.58
2023-05-06T18:09:08.607Z,27.67
2023-05-06T18:11:35.389Z,27.65
2023-05-06T18:14:02.024Z,27.64
2023-05-06T18:16:28.814Z,27.58
2023-05-06T18:18:55.448Z,27.48
2023-05-06T18:21:22.411Z,27.57
2023-05-06T18:23:51.405Z,27.57
2023-05-06T18:26:39.524Z,27.57
2023-05-06T18:29:07.033Z,27.58
2023-05-06T18:31:33.745Z,27.51
2023-05-06T18:34:00.454Z,27.55
2023-05-06T18:36:27.123Z,27.28
2023-05-06T18:38:53.746Z,27.50
2023-05-06T18:41:21.034Z,27.50
2023-05-06T18:43:47.659Z,27.48
2023-05-06T18:46:14.358Z,27.45
2023-05-06T18:48:41.099Z,27.44
2023-05-06T18:51:15.691Z,27.42
2023-05-06T18:53:42.633Z,27.41
2023-05-06T18:56:09.428Z,27.39
2023-05-06T18:58:39.654Z,27.42
2023-05-06T19:01:07.154Z,27.41
2023-05-06T19:03:37.397Z,27.40
2023-05-06T19:06:05.077Z,27.39
2023-05-06T19:08:32.248Z,27.38
2023-05-06T19:10:59.265Z,27.43
2023-05-06T19:13:26.073Z,27.44
2023-05-06T19:15:52.757Z,27.39
2023-05-06T19:18:19.462Z,27.36
2023-05-06T19:20:46.341Z,27.34
2023-05-06T19:23:12.983Z,27.33
2023-05-06T19:25:39.768Z,27.33
2023-05-06T19:28:06.516Z,27.32
2023-05-06T19:30:34.209Z,27.29
2023-05-06T19:33:00.981Z,27.28
2023-05-06T19:35:27.869Z,27.24
2023-05-06T19:37:54.460Z,27.30
2023-05-06T19:40:21.954Z,27.23
2023-05-06T19:42:48.668Z,27.25
2023-05-06T19:45:16.769Z,27.27
2023-05-06T19:47:45.774Z,27.26
2023-05-06T19:50:14.431Z,27.23
2023-05-06T19:52:41.734Z,27.27
2023-05-06T19:55:09.612Z,27.18
2023-05-06T19:57:37.447Z,27.22
2023-05-06T20:00:09.782Z,27.20
2023-05-06T20:02:37.598Z,27.21
2023-05-06T20:05:06.314Z,27.18
2023-05-06T20:07:33.617Z,27.12
2023-05-06T20:10:00.477Z,27.16
2023-05-06T20:12:30.527Z,27.21
2023-05-06T20:14:57.195Z,27.20
2023-05-06T20:17:24.762Z,27.20
2023-05-06T20:19:52.649Z,27.15
2023-05-06T20:22:19.413Z,27.17
2023-05-06T20:24:46.511Z,27.16
2023-05-06T20:27:13.166Z,27.14
2023-05-06T20:29:39.981Z,27.14
2023-05-06T20:32:06.632Z,27.14
2023-05-06T20:34:33.475Z,27.05
2023-05-06T20:37:00.587Z,27.15
2023-05-06T20:39:27.326Z,27.10
2023-05-06T20:41:54.008Z,27.11
2023-05-06T20:44:20.835Z,27.15
2023-05-06T20:46:47.489Z,27.13
2023-05-06T20:49:14.208Z,27.12
2023-05-06T20:51:43.519Z,27.12
2023-05-06T20:54:10.319Z,27.05
2023-05-06T20:56:37.044Z,26.98
2023-05-06T20:59:03.716Z,27.05
2023-05-06T21:01:30.449Z,27.05
2023-05-06T21:04:01.575Z,27.05
2023-05-06T21:06:28.256Z,27.02
2023-05-06T21:09:00.919Z,27.01
2023-05-06T21:11:28.886Z,26.77
2023-05-06T21:13:55.740Z,27.00
2023-05-06T21:16:28.569Z,26.96
2023-05-06T21:18:54.996Z,27.06
2023-05-06T21:21:23.617Z,27.03
2023-05-06T21:23:50.648Z,27.03
2023-05-06T21:26:17.738Z,26.93
2023-05-06T21:28:51.095Z,26.98
2023-05-06T21:31:21.503Z,27.01
2023-05-06T21:33:54.024Z,26.92
2023-05-06T21:36:20.746Z,26.96
2023-05-06T21:38:48.586Z,26.98
2023-05-06T21:41:15.398Z,26.95
2023-05-06T21:43:42.399Z,26.94
2023-05-06T21:46:09.152Z,26.93
2023-05-06T21:48:35.841Z,26.94
2023-05-06T21:51:05.584Z,26.94
2023-05-06T21:53:32.252Z,26.80
2023-05-06T21:55:58.976Z,26.86
2023-05-06T21:58:25.622Z,26.86
2023-05-06T22:00:52.400Z,26.85
2023-05-06T22:03:21.831Z,26.88
2023-05-06T22:05:48.428Z,26.84
2023-05-06T22:08:17.197Z,26.89
2023-05-06T22:10:43.935Z,26.89
2023-05-06T22:13:10.924Z,26.87
2023-05-06T22:15:37.703Z,26.87
2023-05-06T22:18:04.464Z,26.88
2023-05-06T22:20:37.614Z,26.88
2023-05-06T22:23:04.296Z,26.88
2023-05-06T22:25:30.946Z,26.88
2023-05-06T22:27:57.660Z,26.88
2023-05-06T22:30:24.526Z,26.86
2023-05-06T22:35:17.828Z,26.84
2023-05-06T22:37:45.243Z,26.72
2023-05-06T22:40:12.316Z,26.81
2023-05-06T22:42:39.045Z,26.83
2023-05-06T22:45:06.623Z,26.80
2023-05-06T22:47:33.332Z,26.84
2023-05-06T22:49:59.990Z,26.79
2023-05-06T22:52:26.745Z,26.81
2023-05-06T22:54:53.910Z,26.80
2023-05-06T22:57:22.832Z,26.79
2023-05-06T22:59:49.510Z,26.81
2023-05-06T23:02:16.091Z,26.78
2023-05-06T23:04:42.768Z,26.80
2023-05-06T23:07:09.457Z,26.76
2023-05-06T23:09:36.042Z,26.79
2023-05-06T23:12:02.761Z,26.66
2023-05-06T23:14:29.306Z,26.77
2023-05-06T23:16:56.381Z,26.65
2023-05-06T23:19:23.080Z,26.79
2023-05-06T23:21:49.669Z,26.80
2023-05-06T23:24:16.290Z,26.79
2023-05-06T23:26:42.841Z,26.76
2023-05-06T23:29:09.384Z,26.78
2023-05-06T23:31:36.045Z,26.78
2023-05-06T23:34:02.961Z,26.79
2023-05-06T23:36:29.522Z,26.78
2023-05-06T23:38:56.397Z,26.78
2023-05-06T23:41:23.593Z,26.77
2023-05-06T23:43:50.268Z,26.77
2023-05-06T23:46:16.933Z,26.77
2023-05-06T23:48:43.520Z,26.74
2023-05-06T23:51:10.155Z,26.77
2023-05-06T23:53:37.107Z,26.75
2023-05-06T23:56:04.014Z,26.76
2023-05-06T23:58:30.658Z,26.75
